sensor_id;sensor_type;location;lat;lon;timestamp;temperature;humidity
65036;DHT22;51603;49.300;8.880;2024-01-25T00:00:00;9.50;99.90
65036;DHT22;51603;49.300;8.880;2024-01-25T00:02:26;9.50;99.90
65036;DHT22;51603;49.300;8.880;2024-01-25T00:04:52;9.50;99.90
65036;DHT22;51603;49.300;8.880;2024-01-25T00:07:17;9.50;99.90
65036;DHT22;51603;49.300;8.880;2024-01-25T00:09:43;9.50;99.90
65036;DHT22;51603;49.300;8.880;2024-01-25T00:12:08;9.50;99.90
65036;DHT22;51603;49.300;8.880;2024-01-25T00:14:34;9.50;99.90
65036;DHT22;51603;49.300;8.880;2024-01-25T00:16:59;9.50;99.90
65036;DHT22;51603;49.300;8.880;2024-01-25T00:19:25;9.50;99.90
65036;DHT22;51603;49.300;8.880;2024-01-25T00:21:50;9.50;99.90
65036;DHT22;51603;49.300;8.880;2024-01-25T00:24:16;9.50;99.90
65036;DHT22;51603;49.300;8.880;2024-01-25T00:26:41;9.50;99.90
65036;DHT22;51603;49.300;8.880;2024-01-25T00:29:07;9.50;99.90
65036;DHT22;51603;49.300;8.880;2024-01-25T00:31:32;9.40;99.90
65036;DHT22;51603;49.300;8.880;2024-01-25T00:33:58;9.50;99.90
65036;DHT22;51603;49.300;8.880;2024-01-25T00:36:25;9.50;99.90
65036;DHT22;51603;49.300;8.880;2024-01-25T00:38:51;9.50;99.90
65036;DHT22;51603;49.300;8.880;2024-01-25T00:41:18;9.50;99.90
65036;DHT22;51603;49.300;8.880;2024-01-25T00:43:46;9.50;99.90
65036;DHT22;51603;49.300;8.880;2024-01-25T00:46:14;9.50;99.90
65036;DHT22;51603;49.300;8.880;2024-01-25T00:48:40;9.40;99.90
65036;DHT22;51603;49.300;8.880;2024-01-25T00:51:07;9.40;99.90
65036;DHT22;51603;49.300;8.880;2024-01-25T00:53:33;9.40;99.90
65036;DHT22;51603;49.300;8.880;2024-01-25T00:55:59;9.40;99.90
65036;DHT22;51603;49.300;8.880;2024-01-25T00:58:25;9.50;99.90
65036;DHT22;51603;49.300;8.880;2024-01-25T01:00:51;9.50;99.90
65036;DHT22;51603;49.300;8.880;2024-01-25T01:03:18;9.50;99.90
65036;DHT22;51603;49.300;8.880;2024-01-25T01:05:45;9.50;99.90
65036;DHT22;51603;49.300;8.880;2024-01-25T01:08:11;9.50;99.90
65036;DHT22;51603;49.300;8.880;2024-01-25T01:10:37;9.40;99.90
65036;DHT22;51603;49.300;8.880;2024-01-25T01:13:02;9.50;99.90
65036;DHT22;51603;49.300;8.880;2024-01-25T01:15:28;9.50;99.90
65036;DHT22;51603;49.300;8.880;2024-01-25T01:17:54;9.50;99.90
65036;DHT22;51603;49.300;8.880;2024-01-25T01:20:19;9.50;99.90
65036;DHT22;51603;49.300;8.880;2024-01-25T01:22:45;9.50;99.90
65036;DHT22;51603;49.300;8.880;2024-01-25T01:25:11;9.40;99.90
65036;DHT22;51603;49.300;8.880;2024-01-25T01:27:36;9.40;99.90
65036;DHT22;51603;49.300;8.880;2024-01-25T01:30:02;9.50;99.90
65036;DHT22;51603;49.300;8.880;2024-01-25T01:32:28;9.40;99.90
65036;DHT22;51603;49.300;8.880;2024-01-25T01:34:53;9.40;99.90
65036;DHT22;51603;49.300;8.880;2024-01-25T01:37:19;9.40;99.90
65036;DHT22;51603;49.300;8.880;2024-01-25T01:39:45;9.40;99.90
65036;DHT22;51603;49.300;8.880;2024-01-25T01:42:10;9.40;99.90
65036;DHT22;51603;49.300;8.880;2024-01-25T01:44:36;9.40;99.90
65036;DHT22;51603;49.300;8.880;2024-01-25T01:47:02;9.40;99.90
65036;DHT22;51603;49.300;8.880;2024-01-25T01:49:27;9.30;99.90
65036;DHT22;51603;49.300;8.880;2024-01-25T01:51:54;9.30;99.90
65036;DHT22;51603;49.300;8.880;2024-01-25T01:54:19;9.30;99.90
65036;DHT22;51603;49.300;8.880;2024-01-25T01:56:45;9.40;99.90
65036;DHT22;51603;49.300;8.880;2024-01-25T01:59:11;9.30;99.90
65036;DHT22;51603;49.300;8.880;2024-01-25T02:01:37;9.30;99.90
65036;DHT22;51603;49.300;8.880;2024-01-25T02:04:06;9.20;99.90
65036;DHT22;51603;49.300;8.880;2024-01-25T02:06:32;9.20;99.90
65036;DHT22;51603;49.300;8.880;2024-01-25T02:08:58;9.30;99.90
65036;DHT22;51603;49.300;8.880;2024-01-25T02:11:24;9.30;99.90
65036;DHT22;51603;49.300;8.880;2024-01-25T02:13:50;9.20;99.90
65036;DHT22;51603;49.300;8.880;2024-01-25T02:16:16;9.20;99.90
65036;DHT22;51603;49.300;8.880;2024-01-25T02:18:43;9.20;99.90
65036;DHT22;51603;49.300;8.880;2024-01-25T02:21:08;9.10;99.90
65036;DHT22;51603;49.300;8.880;2024-01-25T02:23:34;9.10;99.90
65036;DHT22;51603;49.300;8.880;2024-01-25T02:26:00;9.10;99.90
65036;DHT22;51603;49.300;8.880;2024-01-25T02:28:25;9.00;99.90
65036;DHT22;51603;49.300;8.880;2024-01-25T02:30:51;9.00;99.90
65036;DHT22;51603;49.300;8.880;2024-01-25T02:33:17;9.00;99.90
65036;DHT22;51603;49.300;8.880;2024-01-25T02:35:43;9.00;99.90
65036;DHT22;51603;49.300;8.880;2024-01-25T02:38:08;9.00;99.90
65036;DHT22;51603;49.300;8.880;2024-01-25T02:40:34;8.90;99.90
65036;DHT22;51603;49.300;8.880;2024-01-25T02:42:59;8.90;99.90
65036;DHT22;51603;49.300;8.880;2024-01-25T02:45:25;8.90;99.90
65036;DHT22;51603;49.300;8.880;2024-01-25T02:47:50;8.90;99.90
65036;DHT22;51603;49.300;8.880;2024-01-25T02:50:16;8.90;99.90
65036;DHT22;51603;49.300;8.880;2024-01-25T02:52:42;8.90;99.90
65036;DHT22;51603;49.300;8.880;2024-01-25T02:55:08;9.00;99.90
65036;DHT22;51603;49.300;8.880;2024-01-25T02:57:34;9.00;99.90
65036;DHT22;51603;49.300;8.880;2024-01-25T02:59:59;8.90;99.90
65036;DHT22;51603;49.300;8.880;2024-01-25T03:02:25;8.90;99.90
65036;DHT22;51603;49.300;8.880;2024-01-25T03:04:51;8.80;99.90
65036;DHT22;51603;49.300;8.880;2024-01-25T03:07:16;8.80;99.90
65036;DHT22;51603;49.300;8.880;2024-01-25T03:09:42;8.80;99.90
65036;DHT22;51603;49.300;8.880;2024-01-25T03:12:08;8.80;99.90
65036;DHT22;51603;49.300;8.880;2024-01-25T03:14:33;8.80;99.90
65036;DHT22;51603;49.300;8.880;2024-01-25T03:16:59;8.80;99.90
65036;DHT22;51603;49.300;8.880;2024-01-25T03:19:26;8.80;99.90
65036;DHT22;51603;49.300;8.880;2024-01-25T03:21:52;8.70;99.90
65036;DHT22;51603;49.300;8.880;2024-01-25T03:24:17;8.70;99.90
65036;DHT22;51603;49.300;8.880;2024-01-25T03:26:43;8.70;99.90
65036;DHT22;51603;49.300;8.880;2024-01-25T03:29:09;8.70;99.90
65036;DHT22;51603;49.300;8.880;2024-01-25T03:31:34;8.80;99.90
65036;DHT22;51603;49.300;8.880;2024-01-25T03:34:01;8.80;99.90
65036;DHT22;51603;49.300;8.880;2024-01-25T03:36:27;8.70;99.90
65036;DHT22;51603;49.300;8.880;2024-01-25T03:38:52;8.60;99.90
65036;DHT22;51603;49.300;8.880;2024-01-25T03:41:18;8.60;99.90
65036;DHT22;51603;49.300;8.880;2024-01-25T03:43:43;8.60;99.90
65036;DHT22;51603;49.300;8.880;2024-01-25T03:46:10;8.60;99.90
65036;DHT22;51603;49.300;8.880;2024-01-25T03:48:36;8.60;99.90
65036;DHT22;51603;49.300;8.880;2024-01-25T03:51:01;8.50;99.90
65036;DHT22;51603;49.300;8.880;2024-01-25T03:53:27;8.50;99.90
65036;DHT22;51603;49.300;8.880;2024-01-25T03:55:53;8.40;99.90
65036;DHT22;51603;49.300;8.880;2024-01-25T03:58:18;8.40;99.90
65036;DHT22;51603;49.300;8.880;2024-01-25T04:00:44;8.20;99.90
65036;DHT22;51603;49.300;8.880;2024-01-25T04:03:10;8.20;99.90
65036;DHT22;51603;49.300;8.880;2024-01-25T04:05:36;8.10;99.90
65036;DHT22;51603;49.300;8.880;2024-01-25T04:08:02;8.00;99.90
65036;DHT22;51603;49.300;8.880;2024-01-25T04:10:28;7.90;99.90
65036;DHT22;51603;49.300;8.880;2024-01-25T04:12:54;7.90;99.90
65036;DHT22;51603;49.300;8.880;2024-01-25T04:15:19;7.80;99.90
65036;DHT22;51603;49.300;8.880;2024-01-25T04:17:45;7.70;99.90
65036;DHT22;51603;49.300;8.880;2024-01-25T04:20:11;7.80;99.90
65036;DHT22;51603;49.300;8.880;2024-01-25T04:22:37;7.80;99.90
65036;DHT22;51603;49.300;8.880;2024-01-25T04:25:02;7.80;99.90
65036;DHT22;51603;49.300;8.880;2024-01-25T04:27:28;7.90;99.90
65036;DHT22;51603;49.300;8.880;2024-01-25T04:29:54;8.00;99.90
65036;DHT22;51603;49.300;8.880;2024-01-25T04:32:19;8.10;99.90
65036;DHT22;51603;49.300;8.880;2024-01-25T04:34:45;8.10;99.90
65036;DHT22;51603;49.300;8.880;2024-01-25T04:37:13;8.20;99.90
65036;DHT22;51603;49.300;8.880;2024-01-25T04:39:39;8.10;99.90
65036;DHT22;51603;49.300;8.880;2024-01-25T04:42:04;8.10;99.90
65036;DHT22;51603;49.300;8.880;2024-01-25T04:44:31;8.10;99.90
65036;DHT22;51603;49.300;8.880;2024-01-25T04:46:56;8.10;99.90
65036;DHT22;51603;49.300;8.880;2024-01-25T04:49:22;8.10;99.90
65036;DHT22;51603;49.300;8.880;2024-01-25T04:51:47;8.00;99.90
65036;DHT22;51603;49.300;8.880;2024-01-25T04:54:13;8.00;99.90
65036;DHT22;51603;49.300;8.880;2024-01-25T04:56:43;8.00;99.90
65036;DHT22;51603;49.300;8.880;2024-01-25T04:59:09;8.00;99.90
65036;DHT22;51603;49.300;8.880;2024-01-25T05:01:34;8.00;99.90
65036;DHT22;51603;49.300;8.880;2024-01-25T05:04:00;8.00;99.90
65036;DHT22;51603;49.300;8.880;2024-01-25T05:06:26;8.00;99.90
65036;DHT22;51603;49.300;8.880;2024-01-25T05:08:51;8.00;99.90
65036;DHT22;51603;49.300;8.880;2024-01-25T05:11:17;8.00;99.90
65036;DHT22;51603;49.300;8.880;2024-01-25T05:13:43;8.00;99.90
65036;DHT22;51603;49.300;8.880;2024-01-25T05:16:08;8.10;99.90
65036;DHT22;51603;49.300;8.880;2024-01-25T05:18:34;8.00;99.90
65036;DHT22;51603;49.300;8.880;2024-01-25T05:20:59;8.00;99.90
65036;DHT22;51603;49.300;8.880;2024-01-25T05:23:25;8.10;99.90
65036;DHT22;51603;49.300;8.880;2024-01-25T05:25:51;8.10;99.90
65036;DHT22;51603;49.300;8.880;2024-01-25T05:28:16;8.10;99.90
65036;DHT22;51603;49.300;8.880;2024-01-25T05:30:42;8.00;99.90
65036;DHT22;51603;49.300;8.880;2024-01-25T05:33:08;8.00;99.90
65036;DHT22;51603;49.300;8.880;2024-01-25T05:35:33;8.00;99.90
65036;DHT22;51603;49.300;8.880;2024-01-25T05:38:00;8.00;99.90
65036;DHT22;51603;49.300;8.880;2024-01-25T05:40:25;8.00;99.90
65036;DHT22;51603;49.300;8.880;2024-01-25T05:42:51;8.00;99.90
65036;DHT22;51603;49.300;8.880;2024-01-25T05:45:17;8.00;99.90
65036;DHT22;51603;49.300;8.880;2024-01-25T05:47:45;8.00;99.90
65036;DHT22;51603;49.300;8.880;2024-01-25T05:50:11;8.00;99.90
65036;DHT22;51603;49.300;8.880;2024-01-25T05:52:37;7.90;99.90
65036;DHT22;51603;49.300;8.880;2024-01-25T05:55:06;7.80;99.90
65036;DHT22;51603;49.300;8.880;2024-01-25T05:57:32;7.80;99.90
65036;DHT22;51603;49.300;8.880;2024-01-25T05:59:58;7.80;99.90
65036;DHT22;51603;49.300;8.880;2024-01-25T06:02:23;7.80;99.90
65036;DHT22;51603;49.300;8.880;2024-01-25T06:04:49;7.80;99.90
65036;DHT22;51603;49.300;8.880;2024-01-25T06:07:14;7.70;99.90
65036;DHT22;51603;49.300;8.880;2024-01-25T06:09:40;7.70;99.90
65036;DHT22;51603;49.300;8.880;2024-01-25T06:12:06;7.70;99.90
65036;DHT22;51603;49.300;8.880;2024-01-25T06:14:32;7.70;99.90
65036;DHT22;51603;49.300;8.880;2024-01-25T06:16:57;7.70;99.90
65036;DHT22;51603;49.300;8.880;2024-01-25T06:19:23;7.70;99.90
65036;DHT22;51603;49.300;8.880;2024-01-25T06:21:49;7.70;99.90
65036;DHT22;51603;49.300;8.880;2024-01-25T06:24:15;7.60;99.90
65036;DHT22;51603;49.300;8.880;2024-01-25T06:26:40;7.60;99.90
65036;DHT22;51603;49.300;8.880;2024-01-25T06:29:06;7.50;99.90
65036;DHT22;51603;49.300;8.880;2024-01-25T06:31:32;7.50;99.90
65036;DHT22;51603;49.300;8.880;2024-01-25T06:33:57;7.50;99.90
65036;DHT22;51603;49.300;8.880;2024-01-25T06:36:23;7.50;99.90
65036;DHT22;51603;49.300;8.880;2024-01-25T06:38:48;7.50;99.90
65036;DHT22;51603;49.300;8.880;2024-01-25T06:41:14;7.50;99.90
65036;DHT22;51603;49.300;8.880;2024-01-25T06:43:43;7.50;99.90
65036;DHT22;51603;49.300;8.880;2024-01-25T06:46:08;7.50;99.90
65036;DHT22;51603;49.300;8.880;2024-01-25T06:48:34;7.50;99.90
65036;DHT22;51603;49.300;8.880;2024-01-25T06:51:00;7.50;99.90
65036;DHT22;51603;49.300;8.880;2024-01-25T06:53:26;7.50;99.90
65036;DHT22;51603;49.300;8.880;2024-01-25T06:55:52;7.50;99.90
65036;DHT22;51603;49.300;8.880;2024-01-25T06:58:17;7.50;99.90
65036;DHT22;51603;49.300;8.880;2024-01-25T07:00:43;7.50;99.90
65036;DHT22;51603;49.300;8.880;2024-01-25T07:03:10;7.50;99.90
65036;DHT22;51603;49.300;8.880;2024-01-25T07:05:36;7.40;99.90
65036;DHT22;51603;49.300;8.880;2024-01-25T07:08:02;7.40;99.90
65036;DHT22;51603;49.300;8.880;2024-01-25T07:10:28;7.40;99.90
65036;DHT22;51603;49.300;8.880;2024-01-25T07:12:53;7.40;99.90
65036;DHT22;51603;49.300;8.880;2024-01-25T07:15:19;7.40;99.90
65036;DHT22;51603;49.300;8.880;2024-01-25T07:17:45;7.50;99.90
65036;DHT22;51603;49.300;8.880;2024-01-25T07:20:11;7.40;99.90
65036;DHT22;51603;49.300;8.880;2024-01-25T07:22:36;7.50;99.90
65036;DHT22;51603;49.300;8.880;2024-01-25T07:25:02;7.50;99.90
65036;DHT22;51603;49.300;8.880;2024-01-25T07:27:28;7.50;99.90
65036;DHT22;51603;49.300;8.880;2024-01-25T07:29:53;7.60;99.90
65036;DHT22;51603;49.300;8.880;2024-01-25T07:32:19;7.50;99.90
65036;DHT22;51603;49.300;8.880;2024-01-25T07:34:45;7.50;99.90
65036;DHT22;51603;49.300;8.880;2024-01-25T07:37:12;7.60;99.90
65036;DHT22;51603;49.300;8.880;2024-01-25T07:39:38;7.50;99.90
65036;DHT22;51603;49.300;8.880;2024-01-25T07:42:04;7.50;99.90
65036;DHT22;51603;49.300;8.880;2024-01-25T07:44:29;7.50;99.90
65036;DHT22;51603;49.300;8.880;2024-01-25T07:46:55;7.60;99.90
65036;DHT22;51603;49.300;8.880;2024-01-25T07:49:20;7.50;99.90
65036;DHT22;51603;49.300;8.880;2024-01-25T07:51:46;7.50;99.90
65036;DHT22;51603;49.300;8.880;2024-01-25T07:54:12;7.50;99.90
65036;DHT22;51603;49.300;8.880;2024-01-25T07:56:38;7.50;99.90
65036;DHT22;51603;49.300;8.880;2024-01-25T07:59:04;7.50;99.90
65036;DHT22;51603;49.300;8.880;2024-01-25T08:01:29;7.60;99.90
65036;DHT22;51603;49.300;8.880;2024-01-25T08:03:55;7.60;99.90
65036;DHT22;51603;49.300;8.880;2024-01-25T08:06:21;7.60;99.90
65036;DHT22;51603;49.300;8.880;2024-01-25T08:08:46;7.60;99.90
65036;DHT22;51603;49.300;8.880;2024-01-25T08:11:12;7.60;99.90
65036;DHT22;51603;49.300;8.880;2024-01-25T08:13:37;7.50;99.90
65036;DHT22;51603;49.300;8.880;2024-01-25T08:16:03;7.50;99.90
65036;DHT22;51603;49.300;8.880;2024-01-25T08:18:29;7.50;99.90
65036;DHT22;51603;49.300;8.880;2024-01-25T08:20:55;7.50;99.90
65036;DHT22;51603;49.300;8.880;2024-01-25T08:23:21;7.50;99.90
65036;DHT22;51603;49.300;8.880;2024-01-25T08:25:47;7.50;99.90
65036;DHT22;51603;49.300;8.880;2024-01-25T08:28:12;7.50;99.90
65036;DHT22;51603;49.300;8.880;2024-01-25T08:30:38;7.50;99.90
65036;DHT22;51603;49.300;8.880;2024-01-25T08:33:03;7.50;99.90
65036;DHT22;51603;49.300;8.880;2024-01-25T08:35:29;7.50;99.90
65036;DHT22;51603;49.300;8.880;2024-01-25T08:37:58;7.60;99.90
65036;DHT22;51603;49.300;8.880;2024-01-25T08:40:23;7.60;99.90
65036;DHT22;51603;49.300;8.880;2024-01-25T08:42:49;7.60;99.90
65036;DHT22;51603;49.300;8.880;2024-01-25T08:45:14;7.60;99.90
65036;DHT22;51603;49.300;8.880;2024-01-25T08:47:40;7.60;99.90
65036;DHT22;51603;49.300;8.880;2024-01-25T08:50:06;7.60;99.90
65036;DHT22;51603;49.300;8.880;2024-01-25T08:52:36;7.70;99.90
65036;DHT22;51603;49.300;8.880;2024-01-25T08:55:03;7.80;99.90
65036;DHT22;51603;49.300;8.880;2024-01-25T08:57:29;7.80;99.90
65036;DHT22;51603;49.300;8.880;2024-01-25T08:59:55;7.80;99.90
65036;DHT22;51603;49.300;8.880;2024-01-25T09:02:24;7.90;99.90
65036;DHT22;51603;49.300;8.880;2024-01-25T09:04:52;7.90;99.90
65036;DHT22;51603;49.300;8.880;2024-01-25T09:07:19;7.90;99.90
65036;DHT22;51603;49.300;8.880;2024-01-25T09:09:44;8.00;99.90
65036;DHT22;51603;49.300;8.880;2024-01-25T09:12:10;8.10;99.90
65036;DHT22;51603;49.300;8.880;2024-01-25T09:14:38;8.20;99.90
65036;DHT22;51603;49.300;8.880;2024-01-25T09:17:04;8.20;99.90
65036;DHT22;51603;49.300;8.880;2024-01-25T09:19:30;8.20;99.90
65036;DHT22;51603;49.300;8.880;2024-01-25T09:21:56;8.30;99.90
65036;DHT22;51603;49.300;8.880;2024-01-25T09:24:23;8.30;99.90
65036;DHT22;51603;49.300;8.880;2024-01-25T09:26:49;8.40;99.90
65036;DHT22;51603;49.300;8.880;2024-01-25T09:29:14;8.40;99.90
65036;DHT22;51603;49.300;8.880;2024-01-25T09:31:40;8.50;99.90
65036;DHT22;51603;49.300;8.880;2024-01-25T09:34:05;8.50;99.90
65036;DHT22;51603;49.300;8.880;2024-01-25T09:36:32;8.60;99.90
65036;DHT22;51603;49.300;8.880;2024-01-25T09:38:57;8.60;99.90
65036;DHT22;51603;49.300;8.880;2024-01-25T09:41:23;8.70;99.90
65036;DHT22;51603;49.300;8.880;2024-01-25T09:43:48;8.70;99.90
65036;DHT22;51603;49.300;8.880;2024-01-25T09:46:15;8.80;99.90
65036;DHT22;51603;49.300;8.880;2024-01-25T09:48:42;8.80;99.90
65036;DHT22;51603;49.300;8.880;2024-01-25T09:51:10;8.90;99.90
65036;DHT22;51603;49.300;8.880;2024-01-25T09:53:36;8.90;99.90
65036;DHT22;51603;49.300;8.880;2024-01-25T09:56:07;9.00;99.90
65036;DHT22;51603;49.300;8.880;2024-01-25T09:58:51;9.00;99.90
65036;DHT22;51603;49.300;8.880;2024-01-25T10:01:17;9.10;99.90
65036;DHT22;51603;49.300;8.880;2024-01-25T10:03:44;9.10;99.90
65036;DHT22;51603;49.300;8.880;2024-01-25T10:06:11;9.10;99.90
65036;DHT22;51603;49.300;8.880;2024-01-25T10:08:36;9.20;99.90
65036;DHT22;51603;49.300;8.880;2024-01-25T10:11:03;9.20;99.90
65036;DHT22;51603;49.300;8.880;2024-01-25T10:13:29;9.30;99.90
65036;DHT22;51603;49.300;8.880;2024-01-25T10:15:55;9.30;99.90
65036;DHT22;51603;49.300;8.880;2024-01-25T10:18:22;9.30;99.90
65036;DHT22;51603;49.300;8.880;2024-01-25T10:20:48;9.30;99.90
65036;DHT22;51603;49.300;8.880;2024-01-25T10:23:14;9.40;99.90
65036;DHT22;51603;49.300;8.880;2024-01-25T10:25:40;9.40;99.90
65036;DHT22;51603;49.300;8.880;2024-01-25T10:28:06;9.40;99.90
65036;DHT22;51603;49.300;8.880;2024-01-25T10:30:34;9.40;99.90
65036;DHT22;51603;49.300;8.880;2024-01-25T10:33:03;9.40;99.90
65036;DHT22;51603;49.300;8.880;2024-01-25T10:35:31;9.40;99.90
65036;DHT22;51603;49.300;8.880;2024-01-25T10:37:57;9.40;99.90
65036;DHT22;51603;49.300;8.880;2024-01-25T10:40:23;9.50;99.90
65036;DHT22;51603;49.300;8.880;2024-01-25T10:42:49;9.60;99.90
65036;DHT22;51603;49.300;8.880;2024-01-25T10:45:15;9.60;99.90
65036;DHT22;51603;49.300;8.880;2024-01-25T10:47:40;9.70;99.90
65036;DHT22;51603;49.300;8.880;2024-01-25T10:50:11;9.70;99.90
65036;DHT22;51603;49.300;8.880;2024-01-25T10:52:37;9.80;99.90
65036;DHT22;51603;49.300;8.880;2024-01-25T10:55:04;9.80;99.90
65036;DHT22;51603;49.300;8.880;2024-01-25T10:57:37;9.90;99.90
65036;DHT22;51603;49.300;8.880;2024-01-25T11:00:06;9.90;99.90
65036;DHT22;51603;49.300;8.880;2024-01-25T11:02:35;9.90;99.90
65036;DHT22;51603;49.300;8.880;2024-01-25T11:05:01;10.00;99.90
65036;DHT22;51603;49.300;8.880;2024-01-25T11:07:28;10.00;99.90
65036;DHT22;51603;49.300;8.880;2024-01-25T11:09:54;10.00;99.90
65036;DHT22;51603;49.300;8.880;2024-01-25T11:12:20;10.10;99.90
65036;DHT22;51603;49.300;8.880;2024-01-25T11:14:45;10.10;99.90
65036;DHT22;51603;49.300;8.880;2024-01-25T11:17:22;10.00;99.90
65036;DHT22;51603;49.300;8.880;2024-01-25T11:19:51;10.00;99.90
65036;DHT22;51603;49.300;8.880;2024-01-25T11:22:16;10.10;99.90
65036;DHT22;51603;49.300;8.880;2024-01-25T11:24:42;10.10;99.90
65036;DHT22;51603;49.300;8.880;2024-01-25T11:27:09;10.00;99.90
65036;DHT22;51603;49.300;8.880;2024-01-25T11:29:35;10.00;99.90
65036;DHT22;51603;49.300;8.880;2024-01-25T11:32:03;10.10;99.90
65036;DHT22;51603;49.300;8.880;2024-01-25T11:34:29;10.10;99.90
65036;DHT22;51603;49.300;8.880;2024-01-25T11:36:57;10.10;99.90
65036;DHT22;51603;49.300;8.880;2024-01-25T11:39:23;10.10;99.90
65036;DHT22;51603;49.300;8.880;2024-01-25T11:41:51;10.20;99.90
65036;DHT22;51603;49.300;8.880;2024-01-25T11:44:17;10.20;99.90
65036;DHT22;51603;49.300;8.880;2024-01-25T11:46:42;10.30;99.90
65036;DHT22;51603;49.300;8.880;2024-01-25T11:49:08;10.40;99.90
65036;DHT22;51603;49.300;8.880;2024-01-25T11:51:34;10.50;99.90
65036;DHT22;51603;49.300;8.880;2024-01-25T11:53:59;10.40;99.90
65036;DHT22;51603;49.300;8.880;2024-01-25T11:56:31;10.30;99.90
65036;DHT22;51603;49.300;8.880;2024-01-25T11:58:59;10.30;99.90
65036;DHT22;51603;49.300;8.880;2024-01-25T12:01:25;10.20;99.90
65036;DHT22;51603;49.300;8.880;2024-01-25T12:03:51;10.20;99.90
65036;DHT22;51603;49.300;8.880;2024-01-25T12:06:17;10.20;99.90
65036;DHT22;51603;49.300;8.880;2024-01-25T12:08:44;10.20;99.90
65036;DHT22;51603;49.300;8.880;2024-01-25T12:11:11;10.20;99.90
65036;DHT22;51603;49.300;8.880;2024-01-25T12:13:41;10.40;99.90
65036;DHT22;51603;49.300;8.880;2024-01-25T12:16:08;10.50;99.90
65036;DHT22;51603;49.300;8.880;2024-01-25T12:18:34;10.60;99.90
65036;DHT22;51603;49.300;8.880;2024-01-25T12:21:04;10.80;99.90
65036;DHT22;51603;49.300;8.880;2024-01-25T12:23:38;10.90;99.90
65036;DHT22;51603;49.300;8.880;2024-01-25T12:26:08;10.80;99.90
65036;DHT22;51603;49.300;8.880;2024-01-25T12:28:34;10.70;99.90
65036;DHT22;51603;49.300;8.880;2024-01-25T12:31:04;10.80;99.90
65036;DHT22;51603;49.300;8.880;2024-01-25T12:33:30;10.90;99.90
65036;DHT22;51603;49.300;8.880;2024-01-25T12:35:56;11.00;99.90
65036;DHT22;51603;49.300;8.880;2024-01-25T12:38:22;11.00;99.90
65036;DHT22;51603;49.300;8.880;2024-01-25T12:40:49;11.00;99.90
65036;DHT22;51603;49.300;8.880;2024-01-25T12:43:15;10.90;99.90
65036;DHT22;51603;49.300;8.880;2024-01-25T12:45:41;10.80;99.90
65036;DHT22;51603;49.300;8.880;2024-01-25T12:48:07;10.70;99.90
65036;DHT22;51603;49.300;8.880;2024-01-25T12:50:34;10.60;99.90
65036;DHT22;51603;49.300;8.880;2024-01-25T12:53:01;10.50;99.90
65036;DHT22;51603;49.300;8.880;2024-01-25T12:55:28;10.50;99.90
65036;DHT22;51603;49.300;8.880;2024-01-25T12:57:54;10.40;99.90
65036;DHT22;51603;49.300;8.880;2024-01-25T13:00:19;10.40;99.90
65036;DHT22;51603;49.300;8.880;2024-01-25T13:02:45;10.40;99.90
65036;DHT22;51603;49.300;8.880;2024-01-25T13:05:10;10.50;99.90
65036;DHT22;51603;49.300;8.880;2024-01-25T13:07:36;10.50;99.90
65036;DHT22;51603;49.300;8.880;2024-01-25T13:10:01;10.50;99.90
65036;DHT22;51603;49.300;8.880;2024-01-25T13:12:27;10.50;99.90
65036;DHT22;51603;49.300;8.880;2024-01-25T13:14:52;10.50;99.90
65036;DHT22;51603;49.300;8.880;2024-01-25T13:17:18;10.40;99.90
65036;DHT22;51603;49.300;8.880;2024-01-25T13:19:46;10.40;99.90
65036;DHT22;51603;49.300;8.880;2024-01-25T13:22:13;10.60;99.90
65036;DHT22;51603;49.300;8.880;2024-01-25T13:24:38;10.70;99.90
65036;DHT22;51603;49.300;8.880;2024-01-25T13:27:05;11.00;99.90
65036;DHT22;51603;49.300;8.880;2024-01-25T13:29:30;11.10;99.90
65036;DHT22;51603;49.300;8.880;2024-01-25T13:31:56;11.20;99.90
65036;DHT22;51603;49.300;8.880;2024-01-25T13:34:21;11.30;99.90
65036;DHT22;51603;49.300;8.880;2024-01-25T13:36:47;11.60;99.90
65036;DHT22;51603;49.300;8.880;2024-01-25T13:39:12;11.60;99.90
65036;DHT22;51603;49.300;8.880;2024-01-25T13:41:38;11.70;99.90
65036;DHT22;51603;49.300;8.880;2024-01-25T13:44:03;11.80;99.90
65036;DHT22;51603;49.300;8.880;2024-01-25T13:46:29;11.60;99.90
65036;DHT22;51603;49.300;8.880;2024-01-25T13:48:55;11.50;99.90
65036;DHT22;51603;49.300;8.880;2024-01-25T13:51:20;11.40;99.90
65036;DHT22;51603;49.300;8.880;2024-01-25T13:53:46;11.40;99.90
65036;DHT22;51603;49.300;8.880;2024-01-25T13:56:13;11.20;99.90
65036;DHT22;51603;49.300;8.880;2024-01-25T13:58:38;11.10;99.90
65036;DHT22;51603;49.300;8.880;2024-01-25T14:01:04;11.00;99.90
65036;DHT22;51603;49.300;8.880;2024-01-25T14:03:29;10.90;99.90
65036;DHT22;51603;49.300;8.880;2024-01-25T14:05:56;11.00;99.90
65036;DHT22;51603;49.300;8.880;2024-01-25T14:08:22;11.00;99.90
65036;DHT22;51603;49.300;8.880;2024-01-25T14:10:48;11.00;99.90
65036;DHT22;51603;49.300;8.880;2024-01-25T14:13:14;10.90;99.90
65036;DHT22;51603;49.300;8.880;2024-01-25T14:15:39;10.90;99.90
65036;DHT22;51603;49.300;8.880;2024-01-25T14:18:05;10.80;99.90
65036;DHT22;51603;49.300;8.880;2024-01-25T14:20:31;10.70;99.90
65036;DHT22;51603;49.300;8.880;2024-01-25T14:22:57;10.70;99.90
65036;DHT22;51603;49.300;8.880;2024-01-25T14:25:22;10.70;99.90
65036;DHT22;51603;49.300;8.880;2024-01-25T14:27:48;10.70;99.90
65036;DHT22;51603;49.300;8.880;2024-01-25T14:30:14;10.70;99.90
65036;DHT22;51603;49.300;8.880;2024-01-25T14:32:41;10.60;99.90
65036;DHT22;51603;49.300;8.880;2024-01-25T14:35:07;10.60;99.90
65036;DHT22;51603;49.300;8.880;2024-01-25T14:37:32;10.60;99.90
65036;DHT22;51603;49.300;8.880;2024-01-25T14:39:58;10.50;99.90
65036;DHT22;51603;49.300;8.880;2024-01-25T14:42:23;10.50;99.90
65036;DHT22;51603;49.300;8.880;2024-01-25T14:44:49;10.50;99.90
65036;DHT22;51603;49.300;8.880;2024-01-25T14:47:15;10.50;99.90
65036;DHT22;51603;49.300;8.880;2024-01-25T14:49:45;10.50;99.90
65036;DHT22;51603;49.300;8.880;2024-01-25T14:52:11;10.40;99.90
65036;DHT22;51603;49.300;8.880;2024-01-25T14:54:37;10.30;99.90
65036;DHT22;51603;49.300;8.880;2024-01-25T14:57:02;10.20;99.90
65036;DHT22;51603;49.300;8.880;2024-01-25T14:59:28;10.20;99.90
65036;DHT22;51603;49.300;8.880;2024-01-25T15:01:54;10.20;99.90
65036;DHT22;51603;49.300;8.880;2024-01-25T15:04:19;10.10;99.90
65036;DHT22;51603;49.300;8.880;2024-01-25T15:06:45;10.10;99.90
65036;DHT22;51603;49.300;8.880;2024-01-25T15:09:10;10.10;99.90
65036;DHT22;51603;49.300;8.880;2024-01-25T15:11:36;10.10;99.90
65036;DHT22;51603;49.300;8.880;2024-01-25T15:14:02;10.00;99.90
65036;DHT22;51603;49.300;8.880;2024-01-25T15:16:27;9.90;99.90
65036;DHT22;51603;49.300;8.880;2024-01-25T15:18:56;9.80;99.90
65036;DHT22;51603;49.300;8.880;2024-01-25T15:21:21;9.80;99.90
65036;DHT22;51603;49.300;8.880;2024-01-25T15:23:47;9.80;99.90
65036;DHT22;51603;49.300;8.880;2024-01-25T15:26:12;9.70;99.90
65036;DHT22;51603;49.300;8.880;2024-01-25T15:28:38;9.60;99.90
65036;DHT22;51603;49.300;8.880;2024-01-25T15:31:04;9.70;99.90
65036;DHT22;51603;49.300;8.880;2024-01-25T15:33:29;9.70;99.90